LEXJ/SDR METAR and TAF weather

Enter ICAO airport designator
Station Type Date Time Source
LEXJ METAR 2022/05/26 04:00 UTC NOAA

LEXJ 260400Z VRB02KT 9999 SCT025 OVC035 14/10 Q1028


Station Type Date Time Source
LEXJ Decoded METAR 2022/05/26 04:00 UTC NOAA

Santander / Parayas, Spain (LEXJ) 43-26N 003-49W 9M
May 26, 2022 - 12:00 AM EDT / 2022.05.26 0400 UTC
Wind: Variable at 2 MPH (2 KT):0
Visibility: greater than 7 mile(s):0
Sky conditions: overcast
Temperature: 57 F (14 C)
Dew Point: 50 F (10 C)
Relative Humidity: 76%
Pressure (altimeter): 30.36 in. Hg (1028 hPa)
ob: LEXJ 260400Z VRB02KT 9999 SCT025 OVC035 14/10 Q1028
cycle: 4

Station Type Date Time Source
LEXJ TAF 2022/05/26 03:28 UTC NOAA

TAF LEXJ 260200Z 2603/2703 VRB06KT 9999 FEW015 SCT025 TX20/2612Z TN13/2605Z PROB30
TEMPO 2603/2607 BKN012
BECMG 2611/2614 04010KT
BECMG 2618/2619 VRB06KT

Example: see airport list